Middletown, VA (22645)

12:06 PM EST on November 27, 2014 (GMT -0500)
Kendall Mills | Change Station
CLOSE
Current Station
Personal Weather Station
Location: Middletown, VA
Elevation: 682 ft
Nearby Weather Stations

Elev 682 ft 39.03 °N, 78.25 °W | Updated 1 second ago

Overcast
Overcast
37.1 °F
Feels Like 37 °F
N
0.0
Wind Variable Wind from North
Gusts 0.0 mph

Today
High -- | Low -- °F
--% Chance of Precip.
Yesterday
High -- | Low -- °F
Precip. -- in
7:09 AM 4:52 PM
Waxing Crescent, 31% visible
Pressure 30.04 in
Visibility 10.0 miles
Clouds Scattered Clouds 3100 ft
Overcast 5500 ft
Windchill 37 °F
Dew Point Not available.
Humidity Not available.
Rainfall 0.00 in
Snow Depth Not available.
UV 1 out of 12
Pollen .10 out of 12
Air Quality Not available.
Flu Activity Not available.
METAR KOKV 271655Z AUTO 31007KT 10SM SCT031 OVC055 05/M03 A3004 RMK AO2 P0008

More Conditions Fewer Conditions

Pressure 30.04 in
Visibility 10.0 miles
Clouds Scattered Clouds 3100 ft
Overcast 5500 ft
Windchill 37 °F
Dew Point Not available.
Humidity Not available.
Rainfall 0.00 in
Snow Depth Not available.
UV 1 out of 12
Pollen .10 out of 12
Air Quality Not available.
Flu Activity Not available.
METAR KOKV 271655Z AUTO 31007KT 10SM SCT031 OVC055 05/M03 A3004 RMK AO2 P0008

More Conditions Fewer Conditions

10-Day Weather Forecast

Almanac

Astronomy

Nov. 27, 2014 Rise Set
Actual Time
Civil Twilight
Nautical Twilight
Astronomical Twilight
Moon
Length of Visible Light
Length of Day
Tomorrow will be .
, % of the Moon is Illuminated

Today's Extremes

State Highs State Lows

Community

WunderPhotos

Upload Photos

1,774,040 photos uploaded!

WunderBlogs® & News

Nearby

Air Quality

  Air Quality AQ Index Pollutant
Not available.

Snow Depth

Station Depth Elevation

Earthquake Activity

City Distance Mag. Time & Date
Minimum magnitude displayed is 2.5.

Coastal Water Temperatures

Place Temperature

Nearby Weather Stations